• Join FlightAware (Why Join?)
  • Login
  • US Flag 
12:38PM EDT


 

Airport Tracker/Info


-or-


 

Live Flight TrackerFlight Track Log ✈ N662US ✈ 23-Apr-2013 ✈ RPLL / MNL - RJAA / NRT

Flight Track Log - Related Links

Times and Time Zones

All times are in EDT time to prevent confusion due to time zone crossing. See the N662US flight status page for this flight to view local times or setup timezone preferences in your user account.

Time Position Orientation Groundspeed Altitude Reporting Facility
EDT Latitude Longitude Course Direction KTS MPH feet Rate Location/Type
08:17PM 14.6055 121.0916 36° Northeast  Level Estimated
08:18PM 14.7023 121.1636 36° Northeast  Level Estimated
08:19PM 14.7991 121.2358 36° Northeast  Level Estimated
08:20PM 14.8959 121.3080 36° Northeast  Level Estimated
08:21PM 14.9926 121.3802 36° Northeast  Level Estimated
08:22PM 15.0893 121.4525 36° Northeast  Level Estimated
08:23PM 15.1861 121.5249 36° Northeast  Level Estimated
08:24PM 15.2827 121.5974 36° Northeast  Level Estimated
08:25PM 15.3794 121.6699 36° Northeast  Level Estimated
08:26PM 15.4760 121.7425 36° Northeast  Level Estimated
08:27PM 15.5726 121.8151 36° Northeast  Level Estimated
08:28PM 15.6745 121.8919 36° Northeast  Level Estimated
08:29PM 15.7764 121.9687 36° Northeast  Level Estimated
08:30PM 15.8783 122.0456 36° Northeast  Level Estimated
08:31PM 15.9801 122.1225 36° Northeast  Level Estimated
08:32PM 16.0819 122.1996 36° Northeast  Level Estimated
08:33PM 16.1836 122.2767 36° Northeast  Level Estimated
08:34PM 16.2854 122.3539 36° Northeast  Level Estimated
08:35PM 16.3871 122.4312 36° Northeast  Level Estimated
08:36PM 16.4888 122.5085 36° Northeast  Level Estimated
08:37PM 16.5904 122.5860 36° Northeast  Level Estimated
08:38PM 16.6921 122.6635 36° Northeast  Level Estimated
08:39PM 16.7936 122.7411 36° Northeast  Level Estimated
08:40PM 16.8952 122.8188 36° Northeast  Level Estimated
08:41PM 16.9968 122.8966 36° Northeast  Level Estimated
08:42PM 17.0983 122.9744 36° Northeast  Level Estimated
08:43PM 17.1998 123.0524 36° Northeast  Level Estimated
08:44PM 17.3012 123.1304 36° Northeast  Level Estimated
08:45PM 17.4026 123.2085 36° Northeast  Level Estimated
08:46PM 17.5040 123.2867 36° Northeast  Level Estimated
08:47PM 17.6054 123.3650 36° Northeast  Level Estimated
08:48PM 17.7067 123.4434 36° Northeast  Level Estimated
08:49PM 17.8080 123.5218 36° Northeast  Level Estimated
08:50PM 17.9093 123.6004 36° Northeast  Level Estimated
08:51PM 18.0114 123.6797 36° Northeast  Level Estimated
08:52PM 18.1136 123.7592 36° Northeast  Level Estimated
08:53PM 18.2157 123.8387 37° Northeast  Level Estimated
08:54PM 18.3177 123.9184 37° Northeast  Level Estimated
08:55PM 18.4198 123.9981 37° Northeast  Level Estimated
08:56PM 18.5218 124.0780 37° Northeast  Level Estimated
08:57PM 18.6238 124.1579 37° Northeast  Level Estimated
08:58PM 18.7257 124.2379 37° Northeast  Level Estimated
08:59PM 18.8276 124.3180 37° Northeast  Level Estimated
09:00PM 18.9295 124.3983 37° Northeast  Level Estimated
09:01PM 19.0313 124.4786 37° Northeast  Level Estimated
09:02PM 19.1331 124.5590 37° Northeast  Level Estimated
09:03PM 19.2349 124.6395 37° Northeast  Level Estimated
09:04PM 19.3366 124.7202 37° Northeast  Level Estimated
09:05PM 19.4383 124.8009 37° Northeast  Level Estimated
09:06PM 19.5400 124.8817 37° Northeast  Level Estimated
09:07PM 19.6416 124.9626 37° Northeast  Level Estimated
09:08PM 19.7432 125.0436 37° Northeast  Level Estimated
09:09PM 19.8447 125.1248 37° Northeast  Level Estimated
09:10PM 19.9462 125.2060 37° Northeast  Level Estimated
09:11PM 20.0477 125.2873 37° Northeast  Level Estimated
09:12PM 20.1492 125.3688 37° Northeast  Level Estimated
09:13PM 20.2505 125.4503 37° Northeast  Level Estimated
09:14PM 20.3519 125.5320 37° Northeast  Level Estimated
09:15PM 20.4532 125.6137 37° Northeast  Level Estimated
09:16PM 20.5545 125.6956 37° Northeast  Level Estimated
09:17PM 20.6558 125.7776 37° Northeast  Level Estimated
09:18PM 20.7570 125.8596 37° Northeast  Level Estimated
09:19PM 20.8582 125.9418 37° Northeast  Level Estimated
09:20PM 20.9593 126.0241 37° Northeast  Level Estimated
09:21PM 21.0604 126.1066 37° Northeast  Level Estimated
09:22PM 21.1614 126.1891 37° Northeast  Level Estimated
09:23PM 21.2624 126.2717 37° Northeast  Level Estimated
09:24PM 21.3634 126.3545 37° Northeast  Level Estimated
09:25PM 21.4643 126.4374 37° Northeast  Level Estimated
09:26PM 21.5652 126.5203 37° Northeast  Level Estimated
09:27PM 21.6661 126.6034 37° Northeast  Level Estimated
09:28PM 21.7669 126.6867 37° Northeast  Level Estimated
09:29PM 21.8677 126.7700 37° Northeast  Level Estimated
09:30PM 21.9684 126.8534 38° Northeast  Level Estimated
09:31PM 22.0691 126.9370 38° Northeast  Level Estimated
09:32PM 22.1697 127.0207 38° Northeast  Level Estimated
09:33PM 22.2703 127.1045 38° Northeast  Level Estimated
09:34PM 22.3709 127.1885 38° Northeast  Level Estimated
09:35PM 22.4714 127.2725 38° Northeast  Level Estimated
09:36PM 22.5718 127.3567 38° Northeast  Level Estimated
09:37PM 22.6723 127.4410 38° Northeast  Level Estimated
09:38PM 22.7726 127.5254 38° Northeast  Level Estimated
09:39PM 22.8730 127.6099 38° Northeast  Level Estimated
09:40PM 22.9733 127.6946 38° Northeast  Level Estimated
09:41PM 23.0735 127.7794 38° Northeast  Level Estimated
09:42PM 23.1737 127.8643 38° Northeast  Level Estimated
09:43PM 23.2739 127.9493 38° Northeast  Level Estimated
09:44PM 23.3740 128.0345 38° Northeast  Level Estimated
09:45PM 23.4740 128.1198 38° Northeast  Level Estimated
09:46PM 23.5741 128.2052 38° Northeast  Level Estimated
09:47PM 23.6740 128.2908 38° Northeast  Level Estimated
09:48PM 23.7740 128.3765 38° Northeast  Level Estimated
09:49PM 23.8738 128.4623 38° Northeast  Level Estimated
09:50PM 23.9736 128.5483 38° Northeast  Level Estimated
09:51PM 24.0734 128.6344 38° Northeast  Level Estimated
09:52PM 24.1732 128.7206 38° Northeast  Level Estimated
09:53PM 24.2728 128.8070 38° Northeast  Level Estimated
09:54PM 24.3725 128.8935 38° Northeast  Level Estimated
09:55PM 24.4720 128.9801 38° Northeast  Level Estimated
09:56PM 24.5716 129.0669 38° Northeast  Level Estimated
09:57PM 24.6711 129.1538 38° Northeast  Level Estimated
09:58PM 24.7705 129.2408 38° Northeast  Level Estimated
09:59PM 24.8699 129.3280 39° Northeast  Level Estimated
10:00PM 24.9692 129.4153 39° Northeast  Level Estimated
10:01PM 25.0685 129.5028 39° Northeast  Level Estimated
10:02PM 25.1677 129.5904 39° Northeast  Level Estimated
10:03PM 25.2669 129.6782 39° Northeast  Level Estimated
10:04PM 25.3660 129.7661 39° Northeast  Level Estimated
10:05PM 25.4651 129.8541 39° Northeast  Level Estimated
10:06PM 25.5641 129.9423 39° Northeast  Level Estimated
10:07PM 25.6631 130.0306 39° Northeast  Level Estimated
10:08PM 25.7620 130.1191 39° Northeast  Level Estimated
10:09PM 25.8609 130.2077 39° Northeast  Level Estimated
10:10PM 25.9597 130.2965 39° Northeast  Level Estimated
10:11PM 26.0585 130.3854 39° Northeast  Level Estimated
10:12PM 26.1572 130.4745 39° Northeast  Level Estimated
10:13PM 26.2558 130.5637 39° Northeast  Level Estimated
10:14PM 26.3544 130.6531 39° Northeast  Level Estimated
10:15PM 26.4529 130.7426 39° Northeast  Level Estimated
10:16PM 26.5514 130.8323 39° Northeast  Level Estimated
10:17PM 26.6498 130.9221 39° Northeast  Level Estimated
10:18PM 26.7482 131.0121 39° Northeast  Level Estimated
10:19PM 26.8465 131.1022 39° Northeast  Level Estimated
10:20PM 26.9448 131.1926 39° Northeast  Level Estimated
10:21PM 27.0429 131.2830 39° Northeast  Level Estimated
10:22PM 27.1411 131.3736 39° Northeast  Level Estimated
10:23PM 27.2392 131.4644 39° Northeast  Level Estimated
10:24PM 27.3372 131.5553 39° Northeast  Level Estimated
10:25PM 27.4352 131.6465 40° Northeast  Level Estimated
10:26PM 27.5331 131.7377 40° Northeast  Level Estimated
10:27PM 27.6309 131.8291 40° Northeast  Level Estimated
10:28PM 27.7287 131.9207 40° Northeast  Level Estimated
10:29PM 27.8264 132.0125 40° Northeast  Level Estimated
10:30PM 27.9240 132.1044 40° Northeast  Level Estimated
10:31PM 28.0217 132.1965 40° Northeast  Level Estimated
10:32PM 28.1192 132.2887 40° Northeast  Level Estimated
10:33PM 28.2167 132.3811 40° Northeast  Level Estimated
10:34PM 28.3141 132.4737 40° Northeast  Level Estimated
10:35PM 28.4114 132.5665 40° Northeast  Level Estimated
10:36PM 28.5087 132.6594 40° Northeast  Level Estimated
10:37PM 28.6059 132.7525 40° Northeast  Level Estimated
10:38PM 28.7031 132.8458 40° Northeast  Level Estimated
10:39PM 28.8002 132.9392 40° Northeast  Level Estimated
10:40PM 28.8972 133.0329 40° Northeast  Level Estimated
10:41PM 28.9942 133.1266 40° Northeast  Level Estimated
10:42PM 29.0911 133.2206 40° Northeast  Level Estimated
10:43PM 29.1880 133.3148 40° Northeast  Level Estimated
10:44PM 29.2847 133.4091 40° Northeast  Level Estimated
10:45PM 29.3814 133.5036 40° Northeast  Level Estimated
10:46PM 29.4781 133.5983 40° Northeast  Level Estimated
10:47PM 29.5746 133.6931 40° Northeast  Level Estimated
10:48PM 29.6711 133.7882 41° Northeast  Level Estimated
10:49PM 29.7676 133.8834 41° Northeast  Level Estimated
10:50PM 29.8639 133.9788 41° Northeast  Level Estimated
10:51PM 29.9602 134.0744 41° Northeast  Level Estimated
10:52PM 30.0565 134.1702 41° Northeast  Level Estimated
10:53PM 30.1526 134.2661 41° Northeast  Level Estimated
10:54PM 30.2487 134.3623 41° Northeast  Level Estimated
10:55PM 30.3447 134.4586 41° Northeast  Level Estimated
10:56PM 30.4407 134.5552 41° Northeast  Level Estimated
10:57PM 30.5366 134.6519 41° Northeast  Level Estimated
10:58PM 30.6324 134.7488 41° Northeast  Level Estimated
10:59PM 30.7281 134.8459 41° Northeast  Level Estimated
11:00PM 30.8238 134.9432 41° Northeast  Level Estimated
11:01PM 30.9194 135.0407 41° Northeast  Level Estimated
11:02PM 31.0149 135.1384 41° Northeast  Level Estimated
11:03PM 31.1103 135.2363 41° Northeast  Level Estimated
11:04PM 31.2057 135.3343 41° Northeast  Level Estimated
11:05PM 31.3010 135.4326 41° Northeast  Level Estimated
11:05PM 31.9150 135.3860 41° Northeast 527 606 37,100  Level FlightAware
11:06PM 31.3971 135.5320 41° Northeast  Level Estimated
11:06PM 31.9890 135.4960 52° Northeast 526 605 37,100  Level FlightAware
11:07PM 32.0690 135.6170 52° Northeast 523 602 37,100  Level FlightAware
11:08PM 32.1460 135.7330 52° Northeast 522 601 37,100  Level FlightAware
11:08PM 32.2090 135.8270 52° Northeast 520 598 37,100  Level FlightAware
11:09PM 32.2930 135.9550 52° Northeast 37,100  Level FlightAware
11:10PM 32.3530 136.0470 52° Northeast 521 600 37,100  Level FlightAware
11:11PM 32.4150 136.1410 52° Northeast 524 603 37,100  Level FlightAware
11:12PM 32.4810 136.2480 54° Northeast 526 605 37,100  Level FlightAware
11:12PM 32.5330 136.3460 58° Northeast 523 602 37,100  Level FlightAware
11:13PM 32.5940 136.4610 58° Northeast 525 604 37,100  Level FlightAware
11:14PM 32.6450 136.5560 57° Northeast 524 603 37,100  Level FlightAware
11:14PM 32.6940 136.6490 58° Northeast 523 602 37,100  Level FlightAware
11:15PM 32.7600 136.7760 58° Northeast 522 601 37,100  Level FlightAware
11:16PM 32.8560 136.9610 58° Northeast 520 598 37,100  Level FlightAware
11:17PM 32.9080 137.0620 58° Northeast 520 598 37,100  Level FlightAware
11:18PM 32.9630 137.1690 58° Northeast 515 593 37,100  Level FlightAware
11:19PM 33.0200 137.2790 58° Northeast 520 598 37,100  Level FlightAware
11:19PM 33.0680 137.3730 59° Northeast 516 594 37,100  Level FlightAware
11:20PM 33.1190 137.4720 58° Northeast 517 595 37,100  Level FlightAware
11:21PM 33.1740 137.5820 59° Northeast 519 597 37,100  Level FlightAware
11:22PM 33.2990 137.8290 59° Northeast 522 601 37,100  Level FlightAware
11:23PM 33.3490 137.9290 59° Northeast 523 602 37,100  Level FlightAware
11:24PM 33.3960 138.0230 59° Northeast 522 601 37,100  Level FlightAware
11:25PM 33.4410 138.1090 58° Northeast 525 604 37,100  Level FlightAware
11:25PM 33.5280 138.2650 56° Northeast 517 595 37,100  Level FlightAware
11:26PM 33.5840 138.3620 55° Northeast 517 595 37,100  Level FlightAware
11:27PM 33.6380 138.4550 55° Northeast 517 595 37,100  Level FlightAware
11:27PM 33.6960 138.5550 55° Northeast 518 596 37,100  Level FlightAware
11:28PM 33.7530 138.6550 56° Northeast 520 598 37,100  Level FlightAware
11:29PM 33.8210 138.7730 55° Northeast 520 598 37,100  Level FlightAware
11:29PM 33.8770 138.8710 55° Northeast 519 597 37,100  Level FlightAware
11:30PM 33.9390 138.9800 56° Northeast 520 598 37,100  Level FlightAware
11:31PM 33.9920 139.0740 56° Northeast 525 604 37,100  Level FlightAware
11:32PM 34.0440 139.1660 56° Northeast 526 605 37,100  Level FlightAware
11:32PM 34.1100 139.2850 56° Northeast 525 604 37,100  Level FlightAware
11:33PM 34.1810 139.4120 56° Northeast 525 604 37,100  Level FlightAware
11:34PM 34.2370 139.5130 56° Northeast 524 603 37,100  Level FlightAware
11:35PM 34.2990 139.6240 56° Northeast 522 601 37,100  Level FlightAware
11:35PM 34.3530 139.7220 56° Northeast 520 598 37,100  Level FlightAware
11:36PM 34.4110 139.8280 56° Northeast 513 590 37,100 -540 Level FlightAware
11:37PM 34.4670 139.9300 56° Northeast 520 598 36,400 -1,500 Descending FlightAware
11:38PM 34.5330 140.0510 56° Northeast 534 615 34,900 -1,800 Descending FlightAware
11:38PM 34.5910 140.1580 57° Northeast 547 629 33,400 -1,920 Descending FlightAware
11:39PM 34.6510 140.2680 56° Northeast 558 642 32,100 -900 Descending FlightAware
11:40PM 34.7120 140.3810 57° Northeast 534 615 32,200 -1,140 Climbing FlightAware
11:40PM 34.7670 140.4830 57° Northeast 525 604 30,600 -2,640 Descending FlightAware
11:41PM 34.8250 140.5900 57° Northeast 524 603 28,500 -3,540 Descending FlightAware
11:43PM 34.9800 140.7230 35° Northeast 457 526 23,000 -3,480 Descending FlightAware
11:44PM 35.0950 140.7390 North 437 503 20,100 -3,360 Descending FlightAware
11:44PM 35.1810 140.7500 North 417 480 17,400 -3,840 Descending FlightAware
11:45PM 35.2620 140.7600 North 408 470 15,000 -3,360 Descending FlightAware
11:46PM 35.3400 140.7640 North 387 445 12,700 -3,360 Descending FlightAware
11:46PM 35.4170 140.7600 358° North 373 429 10,300 -2,160 Descending FlightAware
11:47PM 35.4860 140.7560 357° North 320 368 9,700 -540 Descending FlightAware
11:47PM 35.5210 140.7540 357° North 276 318 9,700 -480 Level FlightAware
11:48PM 35.5620 140.7520 358° North 259 298 9,300 -1,140 Descending FlightAware
11:48PM 35.5900 140.7510 358° North 271 312 8,700 -1,440 Descending FlightAware
11:49PM 35.6190 140.7480 355° North 265 305 8,100 -1,380 Descending FlightAware
11:49PM 35.6440 140.7300 330° Northwest 255 293 7,700 -1,440 Descending FlightAware
11:50PM 35.6730 140.7060 326° Northwest 253 291 6,900 -1,560 Descending FlightAware
11:50PM 35.6920 140.6910 327° Northwest 253 291 6,300 -1,320 Descending FlightAware
11:51PM 35.7270 140.6610 325° Northwest 255 293 5,700 -660 Descending FlightAware
11:51PM 35.7490 140.6430 326° Northwest 260 299 5,700  Level FlightAware
11:51PM 35.7590 140.6340 324° Northwest 260 299 5,700  Level FlightAware
11:52PM 35.7870 140.6120 327° Northwest 249 287 5,700 -840 Level FlightAware
11:52PM 35.8170 140.5880 327° Northwest 246 283 4,900 -1,320 Descending FlightAware
11:53PM 35.8600 140.5540 327° Northwest 243 280 4,100 -900 Descending FlightAware
11:54PM 35.8980 140.5230 327° Northwest 216 249 3,700 -600 Descending FlightAware
11:54PM 35.9160 140.4960 309° West 197 227 3,400 -660 Descending FlightAware
11:54PM 35.9290 140.4760 309° West 185 213 3,100 -780 Descending FlightAware
11:55PM 35.9350 140.4620 298° West 180 207 2,900 -540 Descending FlightAware
11:55PM 35.9430 140.4330 289° West 166 191 2,700 -120 Descending FlightAware
11:56PM 35.9480 140.4120 286° West 168 193 2,800 60 Climbing FlightAware
11:56PM 35.9540 140.3840 285° West 158 182 2,800 -120 Level FlightAware
11:57PM 35.9510 140.3630 260° West 161 185 2,700 -300 Descending FlightAware
11:57PM 35.9340 140.3250 241° Southwest 149 171 2,500 -120 Descending FlightAware
11:58PM 35.9210 140.3110 221° Southwest 161 185 2,600  Climbing FlightAware
11:58PM 35.8940 140.3110 180° South 147 169 2,500  Descending FlightAware
11:59PM 35.8680 140.3210 163° South 157 181 2,600 -120 Climbing FlightAware
11:59PM 35.8550 140.3300 151° Southeast 159 183 2,400 -840 Descending FlightAware
12:00AM 35.8210 140.3560 148° Southeast 157 181 1,600 -900 Descending FlightAware
12:01AM 35.8030 140.3700 148° Southeast 157 181 1,200 -900 Descending FlightAware
12:02AM 35.7660 140.3960 150° Southeast 150 173 300 -660 Descending FlightAware
12:02AM 35.7530 140.4060 148° Southeast 150 173 300  Level FlightAware